Camp Sherman, Oregon
Current Conditions -  °F | °C
As of 8:56 AM on Thursday 23 Oct 2014 (Local Time) from KRDM Reporting Station
Light Rain Light Rain  
Wind Chill: 53°   Ceiling: 6000
Heat Index: 53°   Visibility: 10mi
Dew Point: 45°   Wind: 12mph
Humidity: 74%   Direction: 180°S
Pressure: 29.84"   Gusts: 21mph
Location:  44.46°N, 121.64°W
Report Text: KRDM 231556Z 18010G18KT 10SM -RA BKN060 OVC075 12/07 A2984 RMK AO2 RAB19 SLP094 P0000 T01170072
Loading
Personal Weather Stations






























Interactive Weather Map
Tropical Storm Tracking
New forecast layout! Learn more

10-Day Weather Forecast

Advertisements
Track Severe Weather on mobile